Time;durP1;ratioP1;P1;durP2;ratioP2;P2;SDS_P1;SDS_P2;PMS_P1;PMS_P2;Temp;Humidity;BMP_temperature;BMP_pressure;BME280_temperature;BME280_humidity;BME280_pressure;Samples;Min_cycle;Max_cycle;Signal;HPM_P1;HPM_P2
2021/10/12 00:01:50;;;;;;;6.82;1.33;;;;;;;12.69;69.22;102456.13;5072259;28;20037;-48
2021/10/12 00:04:16;;;;;;;5.85;1.50;;;;;;;12.69;68.70;102454.28;5056412;28;20025;-47
2021/10/12 00:06:41;;;;;;;8.63;1.50;;;;;;;12.66;72.51;102456.44;5057327;28;20111;-47
2021/10/12 00:09:06;;;;;;;10.02;1.60;;;;;;;12.55;73.72;102454.00;5056013;28;20475;-47
2021/10/12 00:11:32;;;;;;;6.63;1.40;;;;;;;12.53;74.48;102446.03;5056471;28;20029;-49
2021/10/12 00:13:57;;;;;;;14.23;1.90;;;;;;;12.35;77.09;102448.75;5056299;28;20395;-51
2021/10/12 00:16:23;;;;;;;7.78;1.55;;;;;;;12.25;78.67;102454.22;5068725;28;20056;-52
2021/10/12 00:18:49;;;;;;;10.55;1.80;;;;;;;12.08;81.56;102463.16;5076233;28;20109;-50
2021/10/12 00:21:14;;;;;;;10.98;2.00;;;;;;;11.98;81.06;102470.44;5076274;28;20037;-49
2021/10/12 00:23:40;;;;;;;18.13;2.10;;;;;;;11.84;83.51;102469.09;5075992;28;20031;-50
2021/10/12 00:26:05;;;;;;;9.35;2.17;;;;;;;11.65;83.23;102468.19;5065361;28;20028;-49
2021/10/12 00:28:30;;;;;;;14.13;2.00;;;;;;;11.64;83.46;102455.72;5038223;28;20040;-49
2021/10/12 00:30:57;;;;;;;6.97;1.30;;;;;;;11.58;83.38;102456.28;5037863;28;20053;-55
2021/10/12 00:33:22;;;;;;;11.15;1.88;;;;;;;11.52;83.94;102451.50;5055791;28;20438;-57
2021/10/12 00:35:48;;;;;;;11.05;1.67;;;;;;;11.47;84.39;102453.78;5064429;28;20025;-57
2021/10/12 00:38:13;;;;;;;13.07;1.83;;;;;;;11.50;85.04;102442.72;5057455;28;20025;-55
2021/10/12 00:40:38;;;;;;;11.88;1.55;;;;;;;11.50;85.58;102440.00;5075566;28;20039;-55
2021/10/12 00:43:05;;;;;;;9.77;2.17;;;;;;;11.51;86.39;102443.59;5075381;28;20024;-54
2021/10/12 00:45:30;;;;;;;11.73;1.55;;;;;;;11.48;86.19;102441.16;5074440;28;20067;-55
2021/10/12 00:48:01;;;;;;;11.27;1.60;;;;;;;11.50;85.89;102441.88;5075592;28;20100;-56
2021/10/12 00:50:28;;;;;;;7.28;2.00;;;;;;;11.49;86.85;102446.41;5075214;28;20029;-55
2021/10/12 00:52:54;;;;;;;10.38;1.70;;;;;;;11.47;87.13;102442.16;5075399;28;20024;-56
2021/10/12 00:55:19;;;;;;;14.40;3.40;;;;;;;11.44;87.60;102448.69;5071936;28;20086;-54
2021/10/12 00:57:45;;;;;;;11.52;2.28;;;;;;;11.44;88.65;102432.53;5055531;28;20523;-51
2021/10/12 01:00:11;;;;;;;10.75;2.10;;;;;;;11.41;88.80;102422.03;5037909;28;20025;-52
2021/10/12 01:02:36;;;;;;;10.57;2.47;;;;;;;11.39;88.29;102415.94;5056043;28;20035;-49
2021/10/12 01:05:03;;;;;;;16.60;2.40;;;;;;;11.35;87.89;102409.16;5037717;28;20021;-54
2021/10/12 01:07:28;;;;;;;13.93;2.38;;;;;;;11.34;88.50;102408.28;5055831;28;20033;-57
2021/10/12 01:09:54;;;;;;;9.70;2.03;;;;;;;11.34;89.10;102402.06;5055138;28;20036;-57
2021/10/12 01:12:19;;;;;;;11.10;2.08;;;;;;;11.38;89.26;102400.78;5037305;28;20041;-52
2021/10/12 01:14:45;;;;;;;10.38;2.15;;;;;;;11.31;87.93;102394.28;5054751;28;20087;-56
2021/10/12 01:17:10;;;;;;;13.55;2.53;;;;;;;11.20;88.16;102388.06;5070136;28;20094;-57
2021/10/12 01:19:36;;;;;;;12.93;2.03;;;;;;;11.21;89.27;102394.31;5075065;28;20036;-57
2021/10/12 01:22:01;;;;;;;10.30;2.30;;;;;;;11.19;90.08;102394.47;5074942;28;20033;-52
2021/10/12 01:24:27;;;;;;;8.23;2.42;;;;;;;11.13;90.31;102392.34;5074899;28;20491;-49
2021/10/12 01:26:52;;;;;;;14.45;2.17;;;;;;;11.10;90.59;102408.81;5073228;28;20082;-48
2021/10/12 01:29:17;;;;;;;14.13;2.10;;;;;;;11.11;90.99;102398.88;5074957;28;20070;-48
2021/10/12 01:31:43;;;;;;;14.50;2.38;;;;;;;11.09;90.99;102388.28;5074892;28;20511;-53
2021/10/12 01:34:16;;;;;;;15.10;3.22;;;;;;;11.11;91.38;102378.19;5074932;28;20043;-55
2021/10/12 01:36:42;;;;;;;13.38;2.22;;;;;;;11.13;91.01;102368.09;5059392;28;20086;-57
2021/10/12 01:39:08;;;;;;;7.63;1.92;;;;;;;11.18;90.38;102362.28;5067676;28;20036;-56
2021/10/12 01:41:33;;;;;;;9.40;2.13;;;;;;;11.18;90.46;102351.50;5074481;28;20361;-56
2021/10/12 01:43:58;;;;;;;14.52;2.45;;;;;;;11.18;91.02;102341.56;5074355;28;20138;-53
2021/10/12 01:46:24;;;;;;;9.25;2.00;;;;;;;11.16;91.11;102338.19;5061787;28;20067;-51
2021/10/12 01:48:49;;;;;;;9.52;1.83;;;;;;;11.21;90.83;102332.31;5054358;28;20032;-49
2021/10/12 01:51:14;;;;;;;12.57;2.10;;;;;;;11.18;90.78;102324.53;5054184;28;20047;-48
2021/10/12 01:53:40;;;;;;;8.05;2.15;;;;;;;11.23;91.17;102322.25;5054292;28;20036;-46
2021/10/12 01:56:05;;;;;;;10.10;2.20;;;;;;;11.30;91.70;102322.50;5063012;28;20024;-47
2021/10/12 01:58:30;;;;;;;13.52;2.42;;;;;;;11.29;91.91;102320.81;5074324;28;20044;-48
2021/10/12 02:00:56;;;;;;;11.05;2.38;;;;;;;11.24;91.63;102318.53;5074222;28;20463;-47
2021/10/12 02:03:21;;;;;;;18.30;2.40;;;;;;;11.27;92.08;102312.88;5069927;28;20039;-48
2021/10/12 02:05:47;;;;;;;7.55;2.10;;;;;;;11.28;91.85;102302.94;5070097;28;20024;-46
2021/10/12 02:08:12;;;;;;;11.25;2.53;;;;;;;11.32;92.09;102301.63;5073615;28;20032;-47
2021/10/12 02:10:38;;;;;;;14.93;2.60;;;;;;;11.27;92.00;102295.84;5073863;28;20039;-46
2021/10/12 02:13:04;;;;;;;20.38;2.80;;;;;;;11.30;92.09;102290.19;5073862;28;20471;-47
2021/10/12 02:15:29;;;;;;;13.63;2.22;;;;;;;11.29;92.09;102293.84;5068193;28;20048;-47
2021/10/12 02:17:54;;;;;;;11.30;2.47;;;;;;;11.23;91.38;102302.53;5054049;28;20029;-47
2021/10/12 02:20:20;;;;;;;10.85;2.50;;;;;;;11.19;91.61;102305.53;5053877;28;20550;-47
2021/10/12 02:22:45;;;;;;;12.23;3.10;;;;;;;11.14;91.49;102307.84;5053922;28;20029;-47
2021/10/12 02:25:10;;;;;;;12.48;2.45;;;;;;;11.13;91.53;102311.50;5060644;28;20023;-53
2021/10/12 02:27:37;;;;;;;15.80;3.25;;;;;;;11.18;90.91;102303.84;5073501;28;20070;-56
2021/10/12 02:30:04;;;;;;;10.23;2.63;;;;;;;11.18;90.74;102293.06;5053706;28;20029;-57
2021/10/12 02:32:30;;;;;;;11.55;2.72;;;;;;;11.19;90.52;102294.75;5053225;28;20060;-51
2021/10/12 02:34:55;;;;;;;10.70;1.80;;;;;;;11.24;89.63;102285.38;5057717;28;20467;-50
2021/10/12 02:37:21;;;;;;;8.20;2.60;;;;;;;11.34;88.30;102283.47;5073429;28;20096;-48
2021/10/12 02:39:46;;;;;;;12.82;2.25;;;;;;;11.39;87.51;102279.31;5073515;28;20029;-48
2021/10/12 02:42:11;;;;;;;8.02;2.13;;;;;;;11.44;86.38;102270.78;5073400;28;20040;-49
2021/10/12 02:44:37;;;;;;;8.40;2.47;;;;;;;11.47;87.40;102275.00;5072252;28;20031;-47
2021/10/12 02:47:02;;;;;;;14.25;2.20;;;;;;;11.50;87.47;102270.16;5073297;28;20586;-49
2021/10/12 02:49:28;;;;;;;9.07;1.88;;;;;;;11.46;87.67;102260.69;5073217;28;20032;-48
2021/10/12 02:51:53;;;;;;;9.32;2.05;;;;;;;11.42;88.41;102246.66;5073212;28;20036;-50
2021/10/12 02:54:18;;;;;;;11.50;2.58;;;;;;;11.41;88.69;102247.66;5073057;28;20028;-50
2021/10/12 02:56:44;;;;;;;14.63;2.33;;;;;;;11.42;88.61;102235.03;5071657;28;20082;-49
2021/10/12 02:59:09;;;;;;;10.75;2.10;;;;;;;11.42;88.76;102237.72;5073147;28;20028;-50
2021/10/12 03:01:34;;;;;;;13.90;2.90;;;;;;;11.43;89.29;102232.19;5073035;28;20032;-47
2021/10/12 03:04:00;;;;;;;9.93;2.20;;;;;;;11.42;89.05;102233.16;5072703;28;20059;-47
2021/10/12 03:06:25;;;;;;;11.90;2.85;;;;;;;11.46;89.01;102219.41;5071045;28;20067;-45
2021/10/12 03:08:50;;;;;;;13.77;2.75;;;;;;;11.45;89.47;102217.69;5073030;28;20029;-46
2021/10/12 03:11:16;;;;;;;14.93;2.42;;;;;;;11.44;89.19;102208.75;5069458;28;20029;-46
2021/10/12 03:13:41;;;;;;;13.68;2.40;;;;;;;11.46;89.81;102220.25;5052821;28;20103;-45
2021/10/12 03:16:09;;;;;;;16.38;3.03;;;;;;;11.49;89.80;102209.16;5035083;28;20041;-47
2021/10/12 03:18:35;;;;;;;;;;;;;;;11.50;90.24;102205.44;5053123;28;20104;-46
2021/10/12 03:21:00;;;;;;;16.75;2.88;;;;;;;11.49;90.62;102198.38;5052738;28;19963;-46
2021/10/12 03:23:26;;;;;;;14.00;2.53;;;;;;;11.47;90.79;102197.66;5052722;28;20104;-45
2021/10/12 03:25:52;;;;;;;11.48;2.83;;;;;;;11.48;90.72;102207.47;5062341;28;20164;-46
2021/10/12 03:28:18;;;;;;;22.45;3.72;;;;;;;11.47;90.82;102181.50;5066365;28;20357;-46
2021/10/12 03:30:43;;;;;;;22.60;3.90;;;;;;;11.51;89.86;102190.13;5034515;28;20103;-45
2021/10/12 03:33:09;;;;;;;23.92;3.20;;;;;;;11.47;89.38;102188.75;5052652;28;20052;-51
2021/10/12 03:35:37;;;;;;;16.42;2.67;;;;;;;11.49;89.91;102182.19;5056522;28;20024;-51
2021/10/12 03:38:03;;;;;;;26.08;3.40;;;;;;;11.52;90.21;102183.72;5063668;28;20028;-52
2021/10/12 03:40:28;;;;;;;19.08;3.50;;;;;;;11.57;90.13;102181.41;5072482;28;20361;-51
2021/10/12 03:42:54;;;;;;;16.73;3.53;;;;;;;11.55;90.12;102180.72;5072437;28;20036;-52
2021/10/12 03:45:19;;;;;;;22.15;3.63;;;;;;;11.56;90.59;102174.34;5071910;28;20056;-50
2021/10/12 03:47:45;;;;;;;20.42;3.50;;;;;;;11.57;89.99;102166.09;5072621;28;20031;-51
2021/10/12 03:50:10;;;;;;;19.30;3.35;;;;;;;11.58;89.82;102167.75;5072393;28;20028;-53
2021/10/12 03:52:35;;;;;;;22.40;3.30;;;;;;;11.61;90.17;102172.88;5081757;28;20032;-53
2021/10/12 03:55:01;;;;;;;21.52;3.75;;;;;;;11.63;90.19;102151.97;5058884;28;20087;-53
2021/10/12 03:57:26;;;;;;;14.15;3.70;;;;;;;11.64;90.39;102163.63;5074488;28;20036;-54
2021/10/12 03:59:52;;;;;;;19.65;4.28;;;;;;;11.67;90.09;102157.06;5072341;28;20063;-55
2021/10/12 04:02:17;;;;;;;19.13;3.58;;;;;;;11.68;89.90;102150.66;5072420;28;20475;-57
2021/10/12 04:04:42;;;;;;;25.55;4.40;;;;;;;11.72;89.42;102154.75;5070976;28;20033;-53
2021/10/12 04:07:08;;;;;;;26.55;3.97;;;;;;;11.76;88.92;102145.31;5072282;28;20020;-49
2021/10/12 04:09:33;;;;;;;20.23;4.57;;;;;;;11.78;89.06;102144.16;5064240;28;20108;-48
2021/10/12 04:11:58;;;;;;;20.45;4.05;;;;;;;11.85;88.92;102147.09;5092453;28;20169;-48
2021/10/12 04:14:24;;;;;;;22.85;3.70;;;;;;;11.92;88.52;102139.22;5087589;28;20047;-47
2021/10/12 04:16:49;;;;;;;19.48;3.45;;;;;;;11.94;87.49;102142.63;5071750;28;20443;-47
2021/10/12 04:19:14;;;;;;;24.95;3.22;;;;;;;11.93;86.38;102141.78;5056481;28;20065;-47
2021/10/12 04:21:40;;;;;;;17.65;2.92;;;;;;;11.99;84.59;102143.81;5052178;28;20373;-49
2021/10/12 04:24:06;;;;;;;12.32;2.33;;;;;;;12.03;83.34;102129.03;5034989;28;20428;-47
2021/10/12 04:26:31;;;;;;;12.98;1.88;;;;;;;12.09;82.44;102135.63;5081376;28;20035;-48
2021/10/12 04:28:57;;;;;;;10.23;3.10;;;;;;;12.10;82.01;102136.47;5051555;28;20025;-47
2021/10/12 04:31:22;;;;;;;13.35;2.40;;;;;;;12.09;80.65;102130.22;5058814;28;20053;-50
2021/10/12 04:33:47;;;;;;;20.23;2.78;;;;;;;12.10;81.34;102128.38;5034044;28;20033;-47
2021/10/12 04:36:13;;;;;;;12.60;2.17;;;;;;;12.10;79.95;102126.50;5052526;28;20116;-48
2021/10/12 04:38:38;;;;;;;17.95;2.47;;;;;;;12.13;81.45;102109.16;5052208;28;20472;-48
2021/10/12 04:41:04;;;;;;;13.27;2.15;;;;;;;12.09;81.57;102114.03;5071676;28;20511;-50
2021/10/12 04:43:29;;;;;;;17.38;3.15;;;;;;;12.13;81.26;102112.69;5081267;28;20097;-46
2021/10/12 04:45:54;;;;;;;13.90;2.58;;;;;;;12.16;80.84;102119.63;5049476;28;20032;-47
2021/10/12 04:48:20;;;;;;;14.43;2.20;;;;;;;12.18;81.47;102114.91;5071855;28;20545;-48
2021/10/12 04:50:45;;;;;;;10.60;2.10;;;;;;;12.18;82.08;102123.84;5072869;28;20020;-50
2021/10/12 04:53:10;;;;;;;20.45;3.55;;;;;;;12.24;81.52;102107.03;5075100;28;20107;-50
2021/10/12 04:55:40;;;;;;;14.00;2.80;;;;;;;12.30;81.41;102113.63;5066715;28;20116;-49
2021/10/12 04:58:06;;;;;;;14.18;2.28;;;;;;;12.32;81.83;102100.78;5055383;28;20029;-47
2021/10/12 05:00:31;;;;;;;12.00;2.10;;;;;;;12.39;79.73;102111.81;5055066;28;20365;-43
2021/10/12 05:02:56;;;;;;;14.98;2.17;;;;;;;12.39;80.41;102109.94;5072306;28;20103;-45
2021/10/12 05:05:23;;;;;;;14.38;2.17;;;;;;;12.48;79.66;102100.00;5063615;28;20024;-45
2021/10/12 05:07:48;;;;;;;18.10;2.13;;;;;;;12.48;80.33;102110.81;5073422;28;20043;-46
2021/10/12 05:10:14;;;;;;;16.73;2.90;;;;;;;12.46;82.79;102104.75;5073413;28;20115;-46
2021/10/12 05:12:39;;;;;;;10.65;2.10;;;;;;;12.41;81.81;102109.78;5073493;28;20068;-45
2021/10/12 05:15:05;;;;;;;25.20;2.60;;;;;;;12.41;82.26;102097.13;5073094;28;20028;-45
2021/10/12 05:17:39;;;;;;;19.58;3.22;;;;;;;12.39;82.57;102098.31;5075232;28;20462;-45
2021/10/12 05:20:05;;;;;;;15.05;2.63;;;;;;;12.35;81.12;102096.91;5073651;28;20502;-46
2021/10/12 05:22:31;;;;;;;12.05;2.35;;;;;;;12.38;81.74;102099.31;5074149;28;20107;-45
2021/10/12 05:24:57;;;;;;;25.48;3.33;;;;;;;12.40;81.63;102090.06;5069639;28;20071;-45
2021/10/12 05:27:22;;;;;;;15.00;3.03;;;;;;;12.39;81.56;102095.59;5074111;28;20064;-45
2021/10/12 05:29:48;;;;;;;19.17;2.78;;;;;;;12.41;81.50;102085.50;5056173;28;20050;-46
2021/10/12 05:32:13;;;;;;;18.20;2.60;;;;;;;12.45;81.55;102093.09;5073251;28;20052;-45
2021/10/12 05:34:39;;;;;;;15.35;2.38;;;;;;;12.50;81.26;102089.91;5072215;28;20035;-46
2021/10/12 05:37:04;;;;;;;13.80;2.53;;;;;;;12.56;80.81;102085.69;5073003;28;20069;-45
2021/10/12 05:39:29;;;;;;;17.13;2.50;;;;;;;12.56;81.40;102082.97;5070222;28;20059;-44
2021/10/12 05:41:56;;;;;;;17.38;2.95;;;;;;;12.58;81.59;102071.00;5075396;28;20113;-45
2021/10/12 05:44:21;;;;;;;17.33;3.25;;;;;;;12.50;82.19;102076.41;5071432;28;20402;-45
2021/10/12 05:46:47;;;;;;;24.70;4.05;;;;;;;12.51;81.91;102076.25;5071867;28;20032;-45
2021/10/12 05:49:12;;;;;;;17.58;2.80;;;;;;;12.54;81.86;102068.81;5073355;28;20048;-47
2021/10/12 05:51:37;;;;;;;18.23;2.63;;;;;;;12.54;82.25;102066.97;5071185;28;20057;-45
2021/10/12 05:54:05;;;;;;;16.67;2.67;;;;;;;12.60;81.66;102062.75;5066479;28;20040;-43
2021/10/12 05:56:48;;;;;;;17.83;2.55;;;;;;;12.61;82.27;102059.03;5070341;28;20052;-45
2021/10/12 05:59:14;;;;;;;13.63;2.38;;;;;;;12.61;82.23;102069.84;5064677;28;20036;-45
2021/10/12 06:01:41;;;;;;;18.23;3.25;;;;;;;12.62;81.43;102061.59;5063637;28;20052;-44
2021/10/12 06:04:07;;;;;;;19.45;2.88;;;;;;;12.66;80.91;102051.28;5073180;28;20063;-44
2021/10/12 06:06:32;;;;;;;21.13;2.63;;;;;;;12.68;81.03;102049.25;5071660;28;20394;-45
2021/10/12 06:08:58;;;;;;;10.55;2.45;;;;;;;12.70;80.68;102058.06;5072379;28;20087;-45
2021/10/12 06:11:23;;;;;;;14.13;2.40;;;;;;;12.73;81.02;102052.31;5071882;28;20029;-45
2021/10/12 06:13:51;;;;;;;19.65;3.15;;;;;;;12.72;80.60;102050.63;5067912;28;20040;-45
2021/10/12 06:16:16;;;;;;;11.43;2.33;;;;;;;12.69;81.43;102059.03;5065913;28;20028;-45
2021/10/12 06:18:42;;;;;;;17.08;2.40;;;;;;;12.68;82.08;102065.47;5071442;28;20037;-47
2021/10/12 06:21:09;;;;;;;16.05;2.55;;;;;;;12.60;83.13;102058.19;5072695;28;20040;-46
2021/10/12 06:23:34;;;;;;;16.87;2.43;;;;;;;12.54;83.34;102053.47;5070859;28;20070;-44
2021/10/12 06:26:00;;;;;;;13.88;2.30;;;;;;;12.50;83.70;102058.31;5048411;28;20080;-44
2021/10/12 06:28:25;;;;;;;18.17;2.45;;;;;;;12.46;83.53;102056.97;5071852;28;20031;-43
2021/10/12 06:30:51;;;;;;;17.75;2.72;;;;;;;12.49;83.03;102050.41;5071759;28;20498;-45
2021/10/12 06:33:16;;;;;;;19.65;2.28;;;;;;;12.49;82.39;102051.25;5072340;28;20025;-46
2021/10/12 06:35:42;;;;;;;13.88;2.10;;;;;;;12.54;81.59;102058.03;5066046;28;20036;-47
2021/10/12 06:38:07;;;;;;;17.13;2.38;;;;;;;12.52;82.15;102050.91;5070379;28;20028;-46
2021/10/12 06:40:34;;;;;;;14.98;2.30;;;;;;;12.56;82.56;102047.88;5069738;28;20420;-44
2021/10/12 06:42:59;;;;;;;17.05;2.92;;;;;;;12.59;81.69;102051.13;5069679;28;20513;-44
2021/10/12 06:45:25;;;;;;;16.60;2.03;;;;;;;12.65;81.78;102046.91;5064955;28;20059;-45
2021/10/12 06:47:50;;;;;;;8.85;1.90;;;;;;;12.65;82.26;102045.03;5047139;28;20094;-44
2021/10/12 06:50:17;;;;;;;11.85;2.03;;;;;;;12.69;82.56;102056.34;5072354;28;20104;-46
2021/10/12 06:52:42;;;;;;;9.93;1.77;;;;;;;12.58;82.56;102049.41;5075508;28;20029;-53
2021/10/12 06:55:09;;;;;;;13.60;1.83;;;;;;;12.47;82.95;102047.03;5071199;28;20051;-56
2021/10/12 06:57:35;;;;;;;14.73;2.13;;;;;;;12.40;84.17;102054.94;5070583;28;20024;-49
2021/10/12 07:00:00;;;;;;;9.75;2.10;;;;;;;12.39;84.47;102053.25;5064815;28;20062;-49
2021/10/12 07:02:26;;;;;;;12.40;2.33;;;;;;;12.37;84.92;102047.16;5069454;28;20064;-49
2021/10/12 07:04:51;;;;;;;8.35;1.83;;;;;;;12.38;84.86;102053.44;5072710;28;20071;-46
2021/10/12 07:07:16;;;;;;;10.85;1.70;;;;;;;12.35;84.02;102043.81;5071316;28;20540;-47
2021/10/12 07:09:42;;;;;;;13.70;2.47;;;;;;;12.42;83.95;102050.22;5034723;28;20112;-46
2021/10/12 07:12:07;;;;;;;13.32;2.22;;;;;;;12.51;84.50;102041.13;5072007;28;20103;-47
2021/10/12 07:14:32;;;;;;;16.95;2.47;;;;;;;12.57;84.31;102053.13;5043358;28;20484;-46
2021/10/12 07:16:58;;;;;;;16.90;2.55;;;;;;;12.65;83.33;102049.59;5051915;28;20067;-49
2021/10/12 07:19:26;;;;;;;16.85;2.85;;;;;;;12.75;82.59;102047.59;5056186;28;20040;-47
2021/10/12 07:21:52;;;;;;;;;;;;;;;12.76;82.31;102041.16;5071707;28;20166;-47
2021/10/12 07:24:17;;;;;;;15.80;2.35;;;;;;;12.71;83.25;102035.41;5074040;28;19946;-48
2021/10/12 07:26:42;;;;;;;8.88;2.33;;;;;;;12.72;83.26;102031.72;5072376;28;20025;-46
2021/10/12 07:29:08;;;;;;;9.50;2.38;;;;;;;12.71;84.20;102030.03;5072210;28;20110;-47
2021/10/12 07:31:33;;;;;;;14.30;2.20;;;;;;;12.70;83.34;102028.34;5066631;28;20190;-47
2021/10/12 07:33:59;;;;;;;17.25;2.17;;;;;;;12.70;84.28;102031.03;5062538;28;20119;-50
2021/10/12 07:36:25;;;;;;;10.93;2.22;;;;;;;12.81;82.76;102037.97;5088981;28;20562;-49
2021/10/12 07:38:51;;;;;;;17.40;2.42;;;;;;;12.92;83.02;102026.81;5092573;28;20107;-47
2021/10/12 07:41:16;;;;;;;14.95;2.42;;;;;;;13.05;81.02;102026.31;5078152;28;20104;-48
2021/10/12 07:43:42;;;;;;;20.20;2.10;;;;;;;13.13;81.14;102027.16;5064635;28;20043;-47
2021/10/12 07:46:07;;;;;;;12.48;2.00;;;;;;;13.23;79.56;102027.00;5060106;28;20152;-48
2021/10/12 07:48:33;;;;;;;17.55;2.92;;;;;;;13.36;80.04;102021.09;5062999;28;20051;-47
2021/10/12 07:50:58;;;;;;;12.55;2.03;;;;;;;13.55;79.02;102028.81;5069032;28;20025;-47
2021/10/12 07:53:23;;;;;;;14.05;1.98;;;;;;;13.74;78.70;102015.91;5058559;28;20036;-48
2021/10/12 07:56:00;;;;;;;11.80;2.22;;;;;;;13.89;77.95;102016.06;5077934;28;20383;-46
2021/10/12 07:58:26;;;;;;;14.55;2.10;;;;;;;14.06;77.79;102012.28;5045517;28;20058;-46
2021/10/12 08:00:51;;;;;;;14.93;2.50;;;;;;;14.21;76.23;102021.31;5051646;28;20028;-43
2021/10/12 08:03:17;;;;;;;16.40;2.60;;;;;;;14.49;75.98;102015.41;5067276;28;20039;-47
2021/10/12 08:05:43;;;;;;;11.77;1.75;;;;;;;14.79;73.99;102020.97;5045419;28;20040;-48
2021/10/12 08:08:08;;;;;;;14.35;2.25;;;;;;;14.77;74.50;102014.91;5047146;28;20017;-47
2021/10/12 08:10:35;;;;;;;18.60;2.75;;;;;;;15.02;73.04;102015.56;5059487;28;20028;-46
2021/10/12 08:13:04;;;;;;;13.38;2.50;;;;;;;15.90;72.04;102012.09;5056609;28;20025;-47
2021/10/12 08:15:30;;;;;;;12.75;2.05;;;;;;;16.56;69.04;102016.63;5051757;28;20419;-47
2021/10/12 08:17:55;;;;;;;14.80;2.58;;;;;;;17.15;66.00;102019.13;5076112;28;20043;-49
2021/10/12 08:20:21;;;;;;;11.85;2.35;;;;;;;17.41;65.11;102015.75;5078618;28;20032;-48
2021/10/12 08:22:47;;;;;;;15.15;2.60;;;;;;;17.10;66.60;102016.97;5091976;28;20457;-46
2021/10/12 08:25:12;;;;;;;11.85;2.83;;;;;;;17.00;65.79;102013.75;5068642;28;20029;-46
2021/10/12 08:27:40;;;;;;;9.43;2.60;;;;;;;16.89;66.58;102012.41;5065220;28;20032;-46
2021/10/12 08:30:07;;;;;;;10.60;2.28;;;;;;;16.65;66.56;102004.63;5084354;28;20039;-48
2021/10/12 08:32:33;;;;;;;13.68;2.47;;;;;;;16.00;68.45;102001.78;5075788;28;20120;-49
2021/10/12 08:34:58;;;;;;;15.02;2.45;;;;;;;15.70;70.24;101998.28;5069105;28;20155;-49
2021/10/12 08:37:23;;;;;;;13.82;2.35;;;;;;;15.92;69.92;101993.75;5075517;28;20537;-48
2021/10/12 08:41:16;;;;;;;10.20;1.92;;;;;;;16.16;67.98;102005.31;5056917;27;1218358;-50
2021/10/12 08:43:41;;;;;;;9.10;2.00;;;;;;;16.01;68.36;102003.50;5089636;28;20092;-45
2021/10/12 08:46:07;;;;;;;16.80;2.55;;;;;;;15.81;70.05;102007.81;5076194;28;20455;-47
2021/10/12 08:48:33;;;;;;;15.20;2.00;;;;;;;15.44;71.55;102009.56;5084770;28;20095;-46
2021/10/12 08:51:03;;;;;;;11.93;2.50;;;;;;;15.03;73.63;102015.34;5070512;28;20082;-49
2021/10/12 08:53:29;;;;;;;10.00;2.13;;;;;;;14.67;75.96;102013.28;5089655;28;20020;-48
2021/10/12 08:55:58;;;;;;;12.85;2.42;;;;;;;14.37;78.70;102016.81;5087698;28;20028;-49
2021/10/12 08:58:24;;;;;;;10.32;2.13;;;;;;;14.28;77.83;102006.03;5089496;28;20095;-47
2021/10/12 09:01:03;;;;;;;13.77;2.70;;;;;;;14.25;78.39;101989.31;5088841;28;20071;-46
2021/10/12 09:04:02;;;;;;;10.20;2.25;;;;;;;14.23;78.18;101997.59;5087188;28;20039;-46
2021/10/12 09:06:30;;;;;;;12.55;1.85;;;;;;;14.31;78.91;101993.19;5073885;28;20052;-45
2021/10/12 09:08:57;;;;;;;12.02;2.50;;;;;;;14.32;78.50;101990.28;5071993;28;20087;-46
2021/10/12 09:11:24;;;;;;;14.38;2.30;;;;;;;14.40;78.22;101982.13;5078760;28;20498;-46
2021/10/12 09:14:01;;;;;;;20.38;3.05;;;;;;;14.50;78.61;101982.69;5076236;28;20116;-47
2021/10/12 09:16:32;;;;;;;15.80;2.42;;;;;;;14.67;77.22;101980.75;5085024;28;20645;-46
2021/10/12 09:18:59;;;;;;;12.43;2.60;;;;;;;14.75;77.64;101984.44;5082810;28;20499;-46
2021/10/12 09:21:33;;;;;;;15.18;2.05;;;;;;;15.03;75.81;101976.56;5077794;28;20039;-46
2021/10/12 09:24:10;;;;;;;14.77;2.55;;;;;;;15.55;75.76;101973.81;5081898;28;20036;-46
2021/10/12 09:26:40;;;;;;;13.95;2.20;;;;;;;16.42;72.17;101972.19;5083918;28;20036;-47
2021/10/12 09:29:16;;;;;;;13.65;2.60;;;;;;;16.77;69.33;101975.03;5083816;28;20506;-46
2021/10/12 09:31:44;;;;;;;15.73;2.85;;;;;;;16.62;69.89;101978.69;5087955;28;20029;-48
2021/10/12 09:34:11;;;;;;;12.88;2.00;;;;;;;16.38;70.02;101973.63;5078030;28;20490;-50
2021/10/12 09:36:41;;;;;;;11.68;2.25;;;;;;;15.92;71.29;101965.78;5078393;28;20113;-49
2021/10/12 09:39:09;;;;;;;12.10;2.67;;;;;;;15.74;71.58;101958.84;5051107;28;20048;-46
2021/10/12 09:41:35;;;;;;;12.25;2.15;;;;;;;15.69;71.06;101965.88;5068579;28;20031;-50
2021/10/12 09:44:30;;;;;;;17.13;2.53;;;;;;;15.40;73.45;101967.53;5070755;28;20028;-48
2021/10/12 09:47:15;;;;;;;16.42;2.55;;;;;;;15.35;72.92;101959.97;5058247;28;20063;-46
2021/10/12 09:49:44;;;;;;;9.40;2.33;;;;;;;15.36;73.05;101961.66;5067575;28;20036;-48
2021/10/12 09:52:13;;;;;;;13.63;2.53;;;;;;;15.27;74.73;101953.78;5054976;28;20029;-47
2021/10/12 09:54:48;;;;;;;20.38;3.10;;;;;;;15.31;73.73;101952.38;5054636;28;20111;-49
2021/10/12 09:57:15;;;;;;;11.55;2.30;;;;;;;15.27;73.98;101948.34;5054655;28;20032;-47
2021/10/12 09:59:41;;;;;;;17.27;2.88;;;;;;;15.27;73.92;101956.50;5055673;28;20387;-46
2021/10/12 10:02:11;;;;;;;11.63;2.20;;;;;;;15.13;73.30;101961.72;5055015;28;20025;-48
2021/10/12 10:04:38;;;;;;;11.30;2.30;;;;;;;14.99;73.96;101959.00;5054915;28;20199;-47
2021/10/12 10:07:05;;;;;;;14.00;1.95;;;;;;;14.71;75.59;101963.09;5036917;28;20070;-46
2021/10/12 10:09:32;;;;;;;16.30;2.30;;;;;;;14.53;76.94;101962.56;5057471;28;20067;-45
2021/10/12 10:11:58;;;;;;;17.10;2.50;;;;;;;14.32;79.75;101962.34;5056623;28;20252;-46
2021/10/12 10:14:24;;;;;;;12.60;2.17;;;;;;;14.30;80.50;101958.97;5071906;28;20095;-49
2021/10/12 10:16:52;;;;;;;14.60;2.42;;;;;;;14.24;80.47;101960.53;5036972;28;20026;-52
2021/10/12 10:19:22;;;;;;;16.75;2.63;;;;;;;14.14;81.08;101959.91;5055947;28;20075;-52
2021/10/12 10:21:48;;;;;;;24.58;3.38;;;;;;;14.03;81.72;101972.00;5054569;28;20502;-54
2021/10/12 10:24:36;;;;;;;12.25;1.98;;;;;;;13.78;80.82;101950.47;5057479;28;20037;-54
2021/10/12 10:27:04;;;;;;;14.07;2.08;;;;;;;13.80;81.72;101961.13;5055201;28;20513;-53
2021/10/12 10:29:36;;;;;;;12.45;1.65;;;;;;;13.78;80.68;101961.28;5054683;28;20404;-51
2021/10/12 10:32:12;;;;;;;14.52;2.20;;;;;;;13.82;81.90;101962.63;5057798;28;20086;-49
2021/10/12 10:34:43;;;;;;;12.90;2.17;;;;;;;13.98;81.66;101950.91;5036220;28;20075;-47
2021/10/12 10:37:34;;;;;;;14.45;1.77;;;;;;;14.04;81.33;101954.75;5054263;28;20083;-47
2021/10/12 10:40:02;;;;;;;16.20;1.90;;;;;;;14.08;81.97;101955.22;5054053;28;20318;-47
2021/10/12 10:42:27;;;;;;;13.90;1.98;;;;;;;14.14;82.58;101943.66;5054151;28;20025;-48
2021/10/12 10:44:57;;;;;;;17.25;2.88;;;;;;;14.24;82.84;101949.72;5044754;28;20037;-46
2021/10/12 10:47:56;;;;;;;15.48;2.38;;;;;;;14.35;82.48;101951.16;5071735;28;20021;-47
2021/10/12 10:50:27;;;;;;;15.98;2.45;;;;;;;14.28;83.01;101943.75;4983156;28;20044;-46
2021/10/12 10:52:54;;;;;;;10.13;2.03;;;;;;;14.40;80.99;101949.63;5053619;28;20025;-47
2021/10/12 10:55:24;;;;;;;4.95;1.30;;;;;;;14.61;79.88;101940.88;5059332;28;20503;-47
2021/10/12 10:58:05;;;;;;;8.63;1.20;;;;;;;14.81;80.26;101941.19;5071567;28;20077;-47
2021/10/12 11:00:49;;;;;;;12.93;1.48;;;;;;;15.12;79.38;101948.34;5042794;28;20063;-47
2021/10/12 11:03:36;;;;;;;16.77;2.28;;;;;;;15.26;78.83;101949.41;5052735;28;20388;-45
2021/10/12 11:06:05;;;;;;;9.65;1.50;;;;;;;15.31;78.17;101958.66;5053545;28;20086;-46
2021/10/12 11:08:33;;;;;;;16.27;1.55;;;;;;;15.34;78.70;101961.00;5035450;28;20029;-47
2021/10/12 11:10:58;;;;;;;11.15;1.67;;;;;;;15.35;78.72;101959.13;5066430;28;20079;-47
2021/10/12 11:13:32;;;;;;;5.57;1.13;;;;;;;15.25;78.91;101969.41;5057881;28;20033;-49
2021/10/12 11:15:58;;;;;;;9.38;1.90;;;;;;;15.07;79.94;101961.63;5054117;28;20040;-51
2021/10/12 11:18:23;;;;;;;7.80;1.13;;;;;;;14.93;79.34;101966.00;5034852;28;20040;-46
2021/10/12 11:20:52;;;;;;;5.45;1.05;;;;;;;14.89;80.33;101960.06;5052950;28;20021;-46